Time;durP1;ratioP1;P1;durP2;ratioP2;P2;SDS_P1;SDS_P2;PMS_P1;PMS_P2;Temp;Humidity;BMP_temperature;BMP_pressure;BME280_temperature;BME280_humidity;BME280_pressure;Samples;Min_cycle;Max_cycle;Signal;HPM_P1;HPM_P2
2023/01/12 00:01:47;;;;;;;19.40;7.60;;;;;;;3.44;59.36;100154.63;4319144;33;20813;-93
2023/01/12 00:04:12;;;;;;;19.23;7.78;;;;;;;3.42;59.37;100152.06;4310901;33;20095;-92
2023/01/12 00:06:47;;;;;;;17.23;7.32;;;;;;;3.70;59.39;100155.56;4314177;33;20109;-91
2023/01/12 00:09:13;;;;;;;16.25;7.80;;;;;;;3.63;59.38;100157.28;4309187;33;20104;-92
2023/01/12 00:11:38;;;;;;;17.42;7.95;;;;;;;3.82;59.39;100153.03;4322186;33;20123;-91
2023/01/12 00:14:07;;;;;;;14.77;6.43;;;;;;;3.87;59.39;100160.75;4321878;33;20100;-93
2023/01/12 00:16:42;;;;;;;17.15;7.03;;;;;;;3.73;59.38;100167.59;4297996;33;20138;-93
2023/01/12 00:19:17;;;;;;;15.45;6.95;;;;;;;3.72;59.38;100174.44;4320576;33;20120;-93
2023/01/12 00:21:55;;;;;;;14.87;7.20;;;;;;;3.72;59.38;100171.00;4300029;33;20096;-92
2023/01/12 00:24:24;;;;;;;14.57;7.05;;;;;;;3.72;59.38;100171.88;4309400;33;20114;-94
2023/01/12 00:26:49;;;;;;;15.50;6.70;;;;;;;3.81;59.39;100159.03;4321979;33;20523;-93
2023/01/12 00:29:15;;;;;;;14.68;7.07;;;;;;;3.75;59.38;100153.84;4311921;33;20107;-93
2023/01/12 00:31:41;;;;;;;22.27;8.52;;;;;;;3.69;59.38;100156.41;4319473;33;20136;-91
2023/01/12 00:34:06;;;;;;;21.45;8.50;;;;;;;3.89;59.39;100157.31;4310006;33;20422;-93
2023/01/12 00:36:32;;;;;;;21.37;7.40;;;;;;;4.20;59.42;100158.19;4312061;33;20151;-94
2023/01/12 00:38:57;;;;;;;13.48;6.78;;;;;;;4.12;59.40;100167.66;4316190;33;20456;-93
2023/01/12 00:46:51;;;;;;;16.35;6.82;;;;;;;3.85;59.40;100168.47;4323589;33;20117;-94
2023/01/12 00:49:16;;;;;;;15.13;6.57;;;;;;;4.07;59.41;100164.22;4311239;33;20112;-94
2023/01/12 00:51:42;;;;;;;14.40;6.15;;;;;;;4.05;59.40;100165.09;4323286;33;20183;-93
2023/01/12 00:54:07;;;;;;;10.40;4.85;;;;;;;3.99;59.40;100169.34;4314199;33;20128;-96
2023/01/12 00:56:33;;;;;;;10.77;5.50;;;;;;;4.27;59.42;100166.81;4321316;33;20265;-95
2023/01/12 00:58:59;;;;;;;11.30;5.60;;;;;;;4.12;59.40;100165.06;4321546;33;20133;-95
2023/01/12 01:01:33;;;;;;;12.98;5.47;;;;;;;4.14;59.41;100171.09;4301252;33;20099;-94
2023/01/12 01:03:59;;;;;;;13.10;5.18;;;;;;;4.20;59.40;100170.22;4310697;33;20068;-95
2023/01/12 01:06:25;;;;;;;14.48;6.00;;;;;;;4.21;59.41;100177.09;4311548;33;20146;-95
2023/01/12 01:08:50;;;;;;;12.75;5.60;;;;;;;4.21;59.41;100174.53;4317789;33;20194;-95
2023/01/12 01:11:16;;;;;;;13.32;5.12;;;;;;;4.32;59.41;100180.56;4321699;33;20159;-95
2023/01/12 01:13:44;;;;;;;10.32;5.18;;;;;;;4.41;59.42;100180.53;4323976;33;20139;-95
2023/01/12 01:16:11;;;;;;;12.45;6.05;;;;;;;4.41;59.42;100180.53;4327332;33;20151;-96
2023/01/12 01:18:40;;;;;;;11.38;5.72;;;;;;;4.44;59.42;100185.69;4326059;33;20094;-96
2023/01/12 01:21:07;;;;;;;15.02;5.53;;;;;;;4.44;59.43;100192.56;4311167;33;20122;-96
2023/01/12 01:23:33;;;;;;;15.40;6.95;;;;;;;4.38;59.42;100184.84;4313313;33;20096;-95
2023/01/12 01:26:03;;;;;;;17.15;7.18;;;;;;;4.45;59.43;100189.97;4323147;33;20132;-96
2023/01/12 01:28:29;;;;;;;;;;;;;;;4.43;59.43;100191.72;4322424;33;20119;-96
2023/01/12 01:31:04;;;;;;;20.15;8.38;;;;;;;4.61;59.44;100191.69;4334387;33;20001;-95
2023/01/12 01:33:30;;;;;;;15.02;7.90;;;;;;;4.61;59.44;100188.28;4307438;33;20083;-95
2023/01/12 01:35:55;;;;;;;16.05;7.78;;;;;;;4.51;59.43;100192.59;4304660;33;20163;-96
2023/01/12 01:38:21;;;;;;;16.35;6.93;;;;;;;4.59;59.43;100196.00;4326360;33;20111;-95
2023/01/12 01:40:47;;;;;;;16.02;7.20;;;;;;;4.67;59.44;100192.56;4323099;33;20111;-95
2023/01/12 01:43:13;;;;;;;15.02;8.30;;;;;;;4.69;59.44;100196.84;4321632;33;20430;-96
2023/01/12 01:45:38;;;;;;;18.42;9.27;;;;;;;4.88;59.45;100197.69;4322284;33;20171;-95
2023/01/12 01:48:10;;;;;;;13.65;7.60;;;;;;;4.85;59.44;100203.72;4321727;33;20108;-95
2023/01/12 01:50:37;;;;;;;15.32;7.68;;;;;;;4.93;59.46;100201.97;4322079;33;20123;-96
2023/01/12 01:53:04;;;;;;;18.08;7.55;;;;;;;4.91;59.45;100198.53;4309852;33;20111;-95
2023/01/12 01:55:33;;;;;;;14.52;6.97;;;;;;;4.94;59.46;100198.53;4312827;33;20112;-95
2023/01/12 01:58:10;;;;;;;13.15;7.20;;;;;;;4.81;59.45;100201.16;4308018;33;20129;-94
2023/01/12 02:00:37;;;;;;;13.77;7.18;;;;;;;4.87;59.46;100196.81;4313962;33;20150;-96
2023/01/12 02:03:18;;;;;;;17.35;7.35;;;;;;;4.88;59.45;100198.53;4326275;33;20157;-96
2023/01/12 02:29:20;;;;;;;21.98;10.05;;;;;;;4.86;59.44;100213.16;4368856;32;20157;-96
2023/01/12 02:37:07;;;;;;;22.77;11.10;;;;;;;5.22;59.46;100206.22;4576649;27;20116;-96
2023/01/12 02:39:45;;;;;;;22.35;10.32;;;;;;;5.40;59.48;100206.13;4368889;32;20075;-96
2023/01/12 02:50:14;;;;;;;18.23;8.35;;;;;;;5.09;59.46;100204.53;4457256;27;20178;-96
2023/01/12 02:55:36;;;;;;;20.73;8.57;;;;;;;5.09;59.46;100197.63;4855783;27;20106;-95
2023/01/12 02:58:02;;;;;;;19.17;9.23;;;;;;;5.11;59.46;100185.59;4364113;32;20111;-96
2023/01/12 03:03:11;;;;;;;26.05;10.88;;;;;;;5.11;59.47;100193.34;4829468;27;20086;-96
2023/01/12 03:06:08;;;;;;;22.13;10.82;;;;;;;5.16;59.47;100204.50;4379022;32;20059;-96
2023/01/12 03:09:44;;;;;;;20.65;10.43;;;;;;;5.18;59.47;100201.91;4389902;32;20060;-92
2023/01/12 03:19:28;;;;;;;24.35;11.50;;;;;;;5.18;59.47;100207.91;4642980;27;20070;-95
2023/01/12 03:21:58;;;;;;;22.50;11.68;;;;;;;5.20;59.47;100189.84;4367959;32;20110;-96
2023/01/12 03:24:25;;;;;;;22.98;12.77;;;;;;;5.42;59.48;100188.06;4378622;32;20075;-96
2023/01/12 03:26:54;;;;;;;23.25;12.07;;;;;;;5.33;59.48;100195.84;4369086;32;20105;-93
2023/01/12 03:29:45;;;;;;;25.80;12.15;;;;;;;5.45;59.48;100191.50;4397276;27;20082;-96
2023/01/12 03:32:28;;;;;;;21.65;11.43;;;;;;;5.56;59.49;100188.88;4441896;27;20116;-95
2023/01/12 03:35:19;;;;;;;24.98;11.55;;;;;;;5.28;59.47;100176.94;4393733;32;20114;-91
2023/01/12 03:38:42;;;;;;;24.67;9.90;;;;;;;5.33;59.48;100183.78;4390814;27;20162;-96
2023/01/12 03:41:41;;;;;;;22.17;10.80;;;;;;;5.35;59.47;100182.06;4365838;32;20059;-96
2023/01/12 03:44:09;;;;;;;26.05;10.88;;;;;;;5.44;59.48;100174.31;4377475;32;20067;-96
2023/01/12 03:49:57;;;;;;;21.95;9.65;;;;;;;5.40;59.48;100182.03;4992626;27;20060;-96
2023/01/12 03:52:25;;;;;;;21.75;9.45;;;;;;;5.38;59.48;100179.47;4377722;32;20074;-95
2023/01/12 03:54:55;;;;;;;25.30;10.38;;;;;;;5.38;59.47;100178.59;4355885;32;20129;-96
2023/01/12 03:57:21;;;;;;;;;;;;;;;5.50;59.48;100183.75;4358709;32;20131;-96
2023/01/12 03:59:56;;;;;;;21.92;10.15;;;;;;;5.41;59.48;100187.19;4408308;27;19994;-94
2023/01/12 04:05:32;;;;;;;23.17;9.90;;;;;;;5.36;59.47;100188.94;4448474;27;20086;-94
2023/01/12 04:08:20;;;;;;;20.92;10.27;;;;;;;5.29;59.47;100192.41;4397240;32;20132;-96
2023/01/12 04:10:55;;;;;;;26.98;11.02;;;;;;;5.34;59.47;100187.25;4392203;32;20062;-96
2023/01/12 04:13:23;;;;;;;20.62;9.90;;;;;;;5.40;59.48;100182.91;4373654;32;20757;-94
2023/01/12 04:16:26;;;;;;;21.83;9.85;;;;;;;5.38;59.47;100186.34;4370126;32;20075;-96
2023/01/12 04:34:38;;;;;;;20.12;10.75;;;;;;;5.42;59.48;100175.16;4834817;27;20469;-96
2023/01/12 04:37:04;;;;;;;23.83;10.77;;;;;;;5.44;59.48;100171.72;4381998;32;20102;-96
2023/01/12 04:52:04;;;;;;;22.90;9.82;;;;;;;5.55;59.49;100184.56;4522233;27;20090;-96
2023/01/12 04:54:30;;;;;;;23.08;9.70;;;;;;;5.57;59.49;100184.56;4316211;33;20307;-96
2023/01/12 04:57:01;;;;;;;23.42;9.55;;;;;;;5.46;59.49;100175.16;4309331;33;20119;-96
2023/01/12 04:59:28;;;;;;;18.55;9.43;;;;;;;5.88;59.50;100183.50;4305139;33;20099;-97
2023/01/12 05:01:56;;;;;;;17.45;9.05;;;;;;;5.65;59.49;100182.78;4301129;33;20976;-95
2023/01/12 05:04:21;;;;;;;29.58;12.25;;;;;;;5.63;59.49;100185.38;4303771;33;20056;-96
2023/01/12 05:06:46;;;;;;;19.58;10.30;;;;;;;5.64;59.49;100183.66;4306309;33;20138;-96
2023/01/12 05:17:13;;;;;;;17.95;10.00;;;;;;;5.64;59.49;100193.97;4818600;27;20072;-96
2023/01/12 05:19:38;;;;;;;20.73;9.73;;;;;;;5.94;59.51;100191.28;4313732;33;20147;-94
2023/01/12 05:22:04;;;;;;;22.33;10.40;;;;;;;5.74;59.49;100200.84;4298934;33;20224;-94
2023/01/12 05:24:32;;;;;;;22.17;10.65;;;;;;;5.89;59.50;100205.03;4296201;33;20134;-96
2023/01/12 05:26:59;;;;;;;22.90;10.52;;;;;;;5.89;59.50;100205.91;4305877;33;20100;-94
2023/01/12 05:29:25;;;;;;;21.23;10.43;;;;;;;5.83;59.51;100211.97;4292159;33;20108;-92
2023/01/12 05:31:53;;;;;;;22.77;10.52;;;;;;;5.91;59.51;100206.78;4305340;33;20166;-91
2023/01/12 05:34:19;;;;;;;25.75;11.45;;;;;;;5.94;59.51;100211.09;4293167;33;20109;-92
2023/01/12 05:36:47;;;;;;;24.15;11.32;;;;;;;5.96;59.51;100193.84;4295480;33;20950;-93
2023/01/12 05:39:22;;;;;;;28.60;12.37;;;;;;;5.95;59.51;100194.72;4314792;33;20378;-92
2023/01/12 05:44:34;;;;;;;24.67;11.98;;;;;;;5.65;59.49;100204.31;4328995;33;20106;-90
2023/01/12 05:47:01;;;;;;;26.87;13.85;;;;;;;5.71;59.50;100203.44;4325286;33;20104;-91
2023/01/12 05:49:27;;;;;;;25.17;12.35;;;;;;;5.66;59.49;100195.69;4325117;33;20115;-91
2023/01/12 05:51:52;;;;;;;29.92;13.40;;;;;;;5.58;59.49;100204.34;4325542;33;20154;-92
2023/01/12 05:54:22;;;;;;;25.45;13.43;;;;;;;5.64;59.49;100201.72;4325153;33;20099;-91
2023/01/12 05:56:50;;;;;;;31.05;16.80;;;;;;;5.52;59.49;100213.84;4325449;33;20110;-90
2023/01/12 05:59:16;;;;;;;30.40;14.45;;;;;;;5.43;59.48;100206.13;4325363;33;20155;-91
2023/01/12 06:01:47;;;;;;;25.08;13.07;;;;;;;5.37;59.47;100213.91;4325422;33;20158;-91
2023/01/12 06:04:13;;;;;;;24.70;13.05;;;;;;;5.45;59.48;100206.13;4334770;33;20133;-90
2023/01/12 06:06:38;;;;;;;25.42;13.73;;;;;;;5.73;59.49;100202.56;4330571;33;20426;-89
2023/01/12 06:09:07;;;;;;;29.50;13.20;;;;;;;5.69;59.50;100202.59;4336932;33;20171;-90
2023/01/12 06:14:16;;;;;;;28.23;12.98;;;;;;;5.71;59.50;100203.44;4339401;33;20251;-89
2023/01/12 06:16:42;;;;;;;25.90;13.23;;;;;;;5.58;59.49;100202.63;4322229;33;20469;-87
2023/01/12 06:19:11;;;;;;;33.65;13.73;;;;;;;5.63;59.49;100195.72;4320982;33;20183;-91
2023/01/12 06:21:37;;;;;;;28.62;13.60;;;;;;;5.61;59.48;100196.59;4321984;33;20121;-92
2023/01/12 06:24:06;;;;;;;28.80;13.50;;;;;;;5.75;59.49;100200.81;4321004;33;20930;-90
2023/01/12 06:26:31;;;;;;;28.27;12.68;;;;;;;5.59;59.49;100206.06;4322573;33;20104;-90
2023/01/12 06:28:56;;;;;;;26.55;12.43;;;;;;;5.61;59.49;100220.69;4322892;33;20155;-90
2023/01/12 06:31:22;;;;;;;30.95;13.10;;;;;;;5.65;59.49;100206.87;4324785;33;20107;-89
2023/01/12 06:33:47;;;;;;;25.60;12.48;;;;;;;5.41;59.48;100215.59;4323544;33;20183;-89
2023/01/12 06:36:13;;;;;;;25.58;13.57;;;;;;;5.38;59.47;100220.78;4321762;33;20159;-90
2023/01/12 06:38:38;;;;;;;36.13;16.12;;;;;;;5.60;59.48;100223.28;4319646;33;20118;-90
2023/01/12 06:41:05;;;;;;;27.45;14.70;;;;;;;5.72;59.49;100234.44;4328892;33;20129;-90
2023/01/12 06:43:31;;;;;;;28.15;12.93;;;;;;;5.77;59.50;100234.41;4321462;33;20095;-91
2023/01/12 06:45:56;;;;;;;26.73;12.77;;;;;;;5.77;59.50;100244.72;4310826;33;20087;-90
2023/01/12 06:48:24;;;;;;;27.77;12.50;;;;;;;5.94;59.51;100249.84;4320577;33;20130;-91
2023/01/12 06:51:03;;;;;;;25.83;12.75;;;;;;;5.87;59.50;100251.56;4319394;33;20194;-90
2023/01/12 06:53:32;;;;;;;26.75;12.07;;;;;;;5.83;59.50;100239.53;4319580;33;20087;-90
2023/01/12 06:55:57;;;;;;;25.73;13.35;;;;;;;5.95;59.51;100241.22;4315337;33;20106;-90
2023/01/12 06:58:23;;;;;;;25.88;12.50;;;;;;;5.92;59.51;100246.44;4320511;33;20155;-90
2023/01/12 07:00:51;;;;;;;29.35;12.57;;;;;;;5.95;59.51;100246.41;4318740;33;20088;-90
2023/01/12 07:03:17;;;;;;;22.73;11.18;;;;;;;6.15;59.52;100249.72;4321141;33;20051;-91
2023/01/12 07:05:43;;;;;;;23.80;12.02;;;;;;;6.08;59.52;100251.47;4318942;33;20114;-90
2023/01/12 07:08:09;;;;;;;22.13;10.98;;;;;;;6.02;59.51;100259.28;4316417;33;20123;-90
2023/01/12 07:10:36;;;;;;;28.67;12.93;;;;;;;6.13;59.51;100259.19;4311327;33;20142;-90
2023/01/12 07:13:03;;;;;;;25.35;12.48;;;;;;;6.09;59.52;100260.94;4313952;33;20246;-90
2023/01/12 07:15:29;;;;;;;30.65;12.43;;;;;;;6.11;59.51;100255.75;4324106;33;20119;-90
2023/01/12 07:17:55;;;;;;;26.40;12.50;;;;;;;6.19;59.52;100254.00;4323471;33;20486;-91
2023/01/12 07:20:21;;;;;;;30.65;12.93;;;;;;;6.19;59.52;100256.59;4316971;33;20508;-91
2023/01/12 07:22:46;;;;;;;28.27;13.23;;;;;;;6.23;59.53;100260.87;4319370;33;20099;-88
2023/01/12 07:25:15;;;;;;;31.60;13.10;;;;;;;6.35;59.54;100265.94;4315024;33;20155;-90
2023/01/12 07:27:56;;;;;;;28.60;12.45;;;;;;;6.30;59.53;100262.53;4334840;33;20134;-90
2023/01/12 07:30:25;;;;;;;27.65;13.65;;;;;;;6.13;59.52;100260.06;4323319;33;20618;-90
2023/01/12 07:32:54;;;;;;;25.45;11.95;;;;;;;6.24;59.52;100277.25;4312357;33;20087;-90
2023/01/12 07:35:19;;;;;;;31.58;13.35;;;;;;;6.33;59.53;100277.19;4323779;33;20095;-91
2023/01/12 07:37:54;;;;;;;22.62;11.80;;;;;;;6.34;59.53;100279.75;4323314;33;20127;-90
2023/01/12 07:40:20;;;;;;;29.87;12.55;;;;;;;6.34;59.53;100284.06;4318797;33;20131;-90
2023/01/12 07:42:45;;;;;;;29.70;13.10;;;;;;;6.39;59.53;100290.94;4303573;33;20099;-90
2023/01/12 07:45:11;;;;;;;23.70;11.98;;;;;;;6.43;59.54;100294.37;4310940;33;20129;-90
2023/01/12 07:47:36;;;;;;;23.62;11.55;;;;;;;6.32;59.53;100294.41;4320767;33;20123;-90
2023/01/12 07:50:05;;;;;;;22.02;11.45;;;;;;;6.51;59.54;100292.56;4322697;33;20107;-91
2023/01/12 07:52:31;;;;;;;24.83;11.73;;;;;;;6.58;59.55;100295.97;4323475;33;20099;-91
2023/01/12 07:54:57;;;;;;;24.25;11.57;;;;;;;6.52;59.54;100288.25;4332902;33;20119;-91
2023/01/12 07:57:23;;;;;;;23.92;12.18;;;;;;;6.66;59.55;100286.44;4310498;33;20226;-91
2023/01/12 07:59:48;;;;;;;24.05;12.37;;;;;;;6.75;59.55;100286.38;4313847;33;20125;-90
2023/01/12 08:02:18;;;;;;;25.90;13.23;;;;;;;6.81;59.56;100285.44;4310942;33;20138;-90
2023/01/12 08:04:46;;;;;;;24.10;11.95;;;;;;;7.06;59.56;100287.81;4330205;33;20091;-90
2023/01/12 08:07:12;;;;;;;24.17;12.00;;;;;;;7.18;59.58;100291.19;4331612;33;20111;-91
2023/01/12 08:09:37;;;;;;;27.02;13.15;;;;;;;7.06;59.56;100293.00;4310838;33;20154;-90
2023/01/12 08:12:04;;;;;;;24.40;11.93;;;;;;;7.32;59.58;100294.47;4320580;33;20122;-90
2023/01/12 08:14:36;;;;;;;26.25;12.45;;;;;;;7.43;59.59;100297.81;4330116;33;20099;-90
2023/01/12 08:17:01;;;;;;;28.73;12.30;;;;;;;7.41;59.59;100291.81;4311547;33;20107;-91
2023/01/12 08:19:37;;;;;;;28.38;12.18;;;;;;;7.42;59.59;100297.84;4322645;33;20106;-90
2023/01/12 08:22:03;;;;;;;24.12;11.93;;;;;;;7.62;59.61;100293.31;4313657;33;20118;-91
2023/01/12 08:24:31;;;;;;;22.05;12.05;;;;;;;7.82;59.61;100293.94;4318840;33;20141;-91
2023/01/12 08:26:57;;;;;;;28.27;13.68;;;;;;;7.89;59.61;100305.06;4327737;33;20164;-90
2023/01/12 08:29:42;;;;;;;24.90;13.68;;;;;;;7.72;59.60;100302.69;4313715;33;20107;-90
2023/01/12 08:32:08;;;;;;;27.37;13.60;;;;;;;7.80;59.61;100298.25;4312976;33;20103;-90
2023/01/12 08:34:33;;;;;;;28.75;13.30;;;;;;;7.86;59.62;100300.78;4320684;33;20584;-90
2023/01/12 08:37:00;;;;;;;21.87;11.73;;;;;;;8.14;59.64;100296.09;4319104;33;20457;-90
2023/01/12 08:39:28;;;;;;;25.05;12.45;;;;;;;8.00;59.63;100298.88;4322880;33;20115;-91
2023/01/12 08:41:53;;;;;;;24.48;12.30;;;;;;;8.22;59.63;100301.19;4332872;33;20091;-91
2023/01/12 08:44:20;;;;;;;26.30;13.77;;;;;;;8.27;59.64;100304.56;4310951;33;20127;-90
2023/01/12 08:46:50;;;;;;;23.45;11.75;;;;;;;8.20;59.63;100302.94;4311014;33;20182;-91
2023/01/12 08:49:18;;;;;;;26.37;11.12;;;;;;;8.22;59.62;100306.38;4334848;33;20119;-92
2023/01/12 08:51:43;;;;;;;26.92;11.10;;;;;;;8.17;59.63;100309.03;4311075;33;20122;-91
2023/01/12 08:54:09;;;;;;;26.95;12.25;;;;;;;8.19;59.63;100301.22;4322840;33;20111;-91
2023/01/12 08:56:35;;;;;;;23.25;11.80;;;;;;;8.15;59.63;100300.41;4310565;33;20100;-90
2023/01/12 08:59:01;;;;;;;29.42;13.27;;;;;;;8.17;59.63;100303.84;4320178;33;20343;-90
2023/01/12 09:01:26;;;;;;;28.70;13.27;;;;;;;8.18;59.63;100300.38;4310357;33;20167;-90
2023/01/12 09:03:52;;;;;;;33.42;14.35;;;;;;;8.14;59.63;100313.41;4310308;33;20377;-91
2023/01/12 09:06:22;;;;;;;26.92;13.45;;;;;;;8.05;59.62;100303.16;4325492;33;20137;-91
2023/01/12 09:08:54;;;;;;;25.48;13.55;;;;;;;8.20;59.63;100301.19;4334370;33;20129;-90
2023/01/12 09:11:20;;;;;;;30.08;14.30;;;;;;;8.35;59.64;100299.31;4310082;33;20804;-90
2023/01/12 09:13:45;;;;;;;32.75;14.10;;;;;;;8.42;59.64;100295.75;4322706;33;20116;-91
2023/01/12 09:16:15;;;;;;;25.67;12.85;;;;;;;8.41;59.65;100291.44;4312609;33;20119;-90
2023/01/12 09:18:41;;;;;;;28.50;11.85;;;;;;;8.50;59.65;100291.31;4322379;33;20126;-90
2023/01/12 09:21:10;;;;;;;29.52;13.40;;;;;;;8.59;59.66;100294.63;4320936;33;20153;-91
2023/01/12 09:23:36;;;;;;;26.67;13.27;;;;;;;8.46;59.65;100306.06;4322330;33;20119;-90
2023/01/12 09:26:05;;;;;;;22.10;11.95;;;;;;;8.57;59.65;100299.00;4319921;33;20116;-90
2023/01/12 09:28:34;;;;;;;20.95;11.68;;;;;;;8.66;59.65;100299.72;4316976;33;20133;-90
2023/01/12 09:31:03;;;;;;;22.15;11.57;;;;;;;8.78;59.66;100300.41;4310760;33;20076;-90
2023/01/12 09:33:32;;;;;;;22.77;11.52;;;;;;;8.81;59.66;100294.28;4322218;33;20095;-91
2023/01/12 09:36:08;;;;;;;23.30;11.55;;;;;;;8.88;59.67;100296.75;4322273;33;20179;-90
2023/01/12 09:38:34;;;;;;;22.55;10.52;;;;;;;9.06;59.68;100299.94;4322163;33;20133;-91
2023/01/12 09:41:01;;;;;;;19.60;9.90;;;;;;;9.09;59.68;100300.75;4322316;33;20091;-89
2023/01/12 09:49:08;;;;;;;20.52;9.90;;;;;;;9.19;59.69;100291.87;4336732;33;20125;-90
2023/01/12 09:51:37;;;;;;;18.85;9.57;;;;;;;9.42;59.71;100294.06;4312135;33;20154;-91
2023/01/12 09:54:03;;;;;;;16.02;9.25;;;;;;;9.45;59.70;100290.56;4312591;33;20476;-90
2023/01/12 09:56:50;;;;;;;20.70;10.43;;;;;;;9.61;59.71;100285.94;4307318;33;20446;-91
2023/01/12 09:59:29;;;;;;;20.40;10.05;;;;;;;9.60;59.71;100287.69;4308911;33;20490;-91
2023/01/12 10:01:56;;;;;;;18.37;10.60;;;;;;;9.60;59.71;100285.06;4340336;33;20835;-91
2023/01/12 10:04:21;;;;;;;23.62;11.77;;;;;;;9.58;59.71;100280.81;4331673;33;20115;-90
2023/01/12 10:06:46;;;;;;;22.75;11.52;;;;;;;9.72;59.71;100284.00;4309970;33;20118;-90
2023/01/12 10:09:17;;;;;;;21.98;11.10;;;;;;;9.60;59.71;100273.81;4319287;33;20144;-90
2023/01/12 10:11:43;;;;;;;18.23;10.00;;;;;;;9.40;59.69;100287.19;4312575;33;20122;-90
2023/01/12 10:14:27;;;;;;;23.75;10.48;;;;;;;9.57;59.71;100277.34;4333964;33;20197;-90
2023/01/12 10:17:30;;;;;;;24.42;12.30;;;;;;;9.50;59.71;100273.16;4334074;33;20095;-91
2023/01/12 10:20:11;;;;;;;23.52;12.25;;;;;;;9.38;59.69;100269.03;4335203;33;20537;-90
2023/01/12 10:23:06;;;;;;;20.55;11.45;;;;;;;9.56;59.70;100272.19;4312985;33;20095;-90
2023/01/12 10:25:46;;;;;;;19.40;10.85;;;;;;;9.67;59.72;100265.88;4346763;33;20118;-90
2023/01/12 10:28:28;;;;;;;22.83;12.27;;;;;;;9.59;59.71;100274.72;4321979;33;20104;-91
2023/01/12 10:30:54;;;;;;;23.33;11.43;;;;;;;9.57;59.70;100268.69;4319579;33;20099;-92
2023/01/12 10:33:20;;;;;;;21.52;11.45;;;;;;;9.37;59.70;100261.28;4310017;33;20121;-91
2023/01/12 10:36:16;;;;;;;22.40;13.23;;;;;;;9.53;59.71;100262.69;4336116;33;20132;-91
2023/01/12 10:39:02;;;;;;;20.55;11.12;;;;;;;9.61;59.71;100263.41;4325564;33;20069;-91
2023/01/12 10:41:28;;;;;;;21.62;12.18;;;;;;;9.74;59.72;100266.63;4319393;33;20115;-90
2023/01/12 10:44:13;;;;;;;24.30;12.95;;;;;;;9.75;59.72;100257.94;4321464;33;20159;-91
2023/01/12 10:46:39;;;;;;;22.23;11.82;;;;;;;9.73;59.72;100255.38;4334897;33;20087;-91
2023/01/12 10:49:20;;;;;;;20.17;11.20;;;;;;;9.74;59.72;100261.44;4311713;33;20155;-91
2023/01/12 10:52:08;;;;;;;24.17;11.50;;;;;;;9.72;59.72;100256.25;4335937;33;20169;-91
2023/01/12 10:54:36;;;;;;;22.02;11.68;;;;;;;9.86;59.72;100245.56;4323818;33;20109;-90
2023/01/12 10:57:01;;;;;;;19.08;10.70;;;;;;;9.95;59.73;100247.97;4323772;33;20086;-90
2023/01/12 10:59:28;;;;;;;20.60;12.13;;;;;;;9.92;59.73;100240.22;4335774;33;20127;-91
2023/01/12 11:02:12;;;;;;;18.70;10.38;;;;;;;10.00;59.73;100245.28;4309380;33;20099;-90
2023/01/12 11:04:47;;;;;;;19.65;10.82;;;;;;;9.86;59.72;100240.34;4321093;33;20091;-91
2023/01/12 11:07:15;;;;;;;23.38;10.60;;;;;;;9.80;59.71;100256.09;4319900;33;20087;-90
2023/01/12 11:09:42;;;;;;;23.50;11.20;;;;;;;9.77;59.71;100250.97;4333271;33;20120;-90
2023/01/12 11:12:23;;;;;;;17.62;10.57;;;;;;;9.66;59.71;100247.72;4316659;33;20098;-90
2023/01/12 11:15:11;;;;;;;20.42;10.95;;;;;;;9.61;59.71;100234.81;4325869;33;20086;-91
2023/01/12 11:17:56;;;;;;;20.17;11.12;;;;;;;9.46;59.70;100230.78;4336305;33;20252;-90
2023/01/12 11:20:40;;;;;;;20.73;11.88;;;;;;;9.58;59.71;100228.81;4335622;33;20072;-90
2023/01/12 11:23:18;;;;;;;19.98;10.82;;;;;;;9.39;59.70;100236.97;4336043;33;20135;-90
2023/01/12 11:25:45;;;;;;;22.87;12.00;;;;;;;9.46;59.70;100235.09;4323828;33;20095;-90
2023/01/12 11:28:22;;;;;;;27.15;14.32;;;;;;;9.39;59.69;100226.59;4311643;33;20721;-91
2023/01/12 11:30:51;;;;;;;26.58;13.88;;;;;;;9.48;59.70;100228.16;4322762;33;20160;-90
2023/01/12 11:33:33;;;;;;;20.52;11.60;;;;;;;9.51;59.71;100223.75;4322824;33;20107;-90
2023/01/12 11:36:05;;;;;;;26.42;13.27;;;;;;;9.40;59.69;100210.09;4311602;33;20096;-90
2023/01/12 11:38:39;;;;;;;24.27;12.63;;;;;;;9.42;59.71;100223.06;4321227;33;20110;-90
2023/01/12 11:41:12;;;;;;;24.80;12.68;;;;;;;9.28;59.70;100215.56;4317959;33;20783;-90
2023/01/12 11:44:02;;;;;;;26.23;13.57;;;;;;;9.38;59.70;100211.03;4311934;33;20115;-90
2023/01/12 11:46:29;;;;;;;;;;;;;;;9.48;59.70;100207.38;4323900;33;20135;-90
2023/01/12 11:49:02;;;;;;;27.10;14.57;;;;;;;9.48;59.70;100215.16;4335721;33;19981;-91
2023/01/12 11:51:27;;;;;;;26.00;13.15;;;;;;;9.60;59.71;100204.50;4335537;33;20776;-90
2023/01/12 11:53:53;;;;;;;28.33;13.70;;;;;;;9.62;59.71;100202.72;4310865;33;20099;-90
2023/01/12 11:56:22;;;;;;;28.90;14.18;;;;;;;9.64;59.71;100213.09;4323592;33;20103;-90
2023/01/12 11:58:52;;;;;;;26.75;13.43;;;;;;;9.64;59.71;100213.94;4335523;33;20122;-90
2023/01/12 12:01:38;;;;;;;23.38;13.10;;;;;;;9.71;59.71;100212.97;4322947;33;20075;-90
2023/01/12 12:04:38;;;;;;;25.52;14.35;;;;;;;9.73;59.72;100216.37;4336663;33;20170;-91
2023/01/12 12:07:22;;;;;;;;;;;;;;;10.00;59.73;100195.84;4324505;33;20087;-90
2023/01/12 12:10:04;;;;;;;27.80;12.65;;;;;;;10.11;59.74;100207.72;4347923;33;19983;-91
2023/01/12 12:13:07;;;;;;;24.70;13.13;;;;;;;10.34;59.75;100201.16;4326808;33;20154;-89
2023/01/12 12:15:36;;;;;;;21.50;12.35;;;;;;;10.30;59.74;100199.53;4335303;33;20075;-90
2023/01/12 12:18:19;;;;;;;23.75;12.32;;;;;;;10.19;59.75;100209.31;4331135;33;20133;-90
2023/01/12 12:21:08;;;;;;;24.02;12.85;;;;;;;10.28;59.74;100202.16;4342671;33;20122;-90
2023/01/12 12:24:08;;;;;;;27.23;13.43;;;;;;;10.38;59.75;100202.78;4337546;33;20457;-91
2023/01/12 12:26:35;;;;;;;23.12;13.73;;;;;;;10.39;59.75;100207.94;4303014;33;20260;-90
2023/01/12 12:29:19;;;;;;;24.27;12.65;;;;;;;10.29;59.75;100203.88;4322957;33;20068;-90
2023/01/12 12:32:09;;;;;;;28.30;13.35;;;;;;;10.52;59.75;100205.94;4336703;33;20679;-91
2023/01/12 12:35:17;;;;;;;25.33;12.95;;;;;;;10.52;59.76;100202.47;4331667;33;20174;-90
2023/01/12 12:37:53;;;;;;;24.80;11.85;;;;;;;10.68;59.77;100202.06;4331984;33;20119;-88
2023/01/12 12:40:27;;;;;;;25.05;13.95;;;;;;;10.47;59.75;100193.94;4335179;33;20091;-90
2023/01/12 12:46:16;;;;;;;20.60;12.30;;;;;;;10.75;59.77;100187.97;4336378;33;20090;-90
2023/01/12 12:48:58;;;;;;;20.67;12.45;;;;;;;10.65;59.77;100188.28;4336480;33;20111;-90
2023/01/12 12:51:24;;;;;;;22.00;12.73;;;;;;;10.57;59.77;100174.56;4335119;33;20126;-90
2023/01/12 12:53:51;;;;;;;25.67;15.90;;;;;;;10.54;59.75;100177.25;4323251;33;20190;-91
2023/01/12 12:56:18;;;;;;;30.08;18.10;;;;;;;10.61;59.76;100179.66;4332445;33;20107;-92
2023/01/12 12:58:45;;;;;;;23.38;14.23;;;;;;;10.43;59.76;100175.78;4311014;33;20106;-91
2023/01/12 13:01:28;;;;;;;20.42;13.35;;;;;;;10.56;59.76;100181.53;4322470;33;20091;-91
2023/01/12 13:04:01;;;;;;;21.30;12.50;;;;;;;10.75;59.77;100180.16;4334533;33;20163;-90
2023/01/12 13:06:33;;;;;;;19.55;11.40;;;;;;;10.85;59.78;100170.34;4323072;33;20168;-91
2023/01/12 13:09:00;;;;;;;21.17;11.98;;;;;;;10.98;59.78;100163.09;4330986;33;20136;-91
2023/01/12 13:11:54;;;;;;;20.90;12.63;;;;;;;10.91;59.78;100175.44;4322609;33;20095;-90
2023/01/12 13:14:20;;;;;;;21.95;12.30;;;;;;;11.00;59.79;100174.31;4334516;33;20171;-91
2023/01/12 13:16:46;;;;;;;22.13;12.73;;;;;;;10.92;59.79;100178.88;4334602;33;20102;-91
2023/01/12 13:19:12;;;;;;;17.48;11.23;;;;;;;11.05;59.79;100175.03;4333595;33;20097;-90
2023/01/12 13:21:54;;;;;;;21.25;11.95;;;;;;;11.07;59.79;100173.25;4318826;33;20467;-91
2023/01/12 13:24:39;;;;;;;19.17;9.95;;;;;;;10.93;59.79;100175.38;4319301;33;20175;-90
2023/01/12 13:27:43;;;;;;;16.90;11.00;;;;;;;11.13;59.79;100172.25;4340949;33;20477;-91
2023/01/12 13:30:29;;;;;;;17.98;10.98;;;;;;;11.03;59.79;100172.47;4338230;33;20115;-91
2023/01/12 13:32:59;;;;;;;16.80;10.15;;;;;;;10.93;59.79;100165.81;4333365;33;20811;-91